Time;durP1;ratioP1;P1;durP2;ratioP2;P2;SDS_P1;SDS_P2;PMS_P1;PMS_P2;Temp;Humidity;BMP_temperature;BMP_pressure;BME280_temperature;BME280_humidity;BME280_pressure;Samples;Min_cycle;Max_cycle;Signal;HPM_P1;HPM_P2
2022/12/02 00:01:19;;;;;;;48.90;25.45;;;4.50;99.90;;;;;;5037043;28;20040;-59
2022/12/02 00:03:45;;;;;;;56.67;27.80;;;4.40;99.90;;;;;;5029983;28;20564;-59
2022/12/02 00:06:19;;;;;;;52.47;27.05;;;4.40;99.90;;;;;;5044007;28;20056;-60
2022/12/02 00:08:45;;;;;;;54.97;25.95;;;4.40;99.90;;;;;;5031005;28;20051;-59
2022/12/02 00:11:31;;;;;;;54.47;27.17;;;4.30;99.90;;;;;;5038648;28;20866;-60
2022/12/02 00:13:59;;;;;;;56.55;27.23;;;4.30;99.90;;;;;;5034814;28;20040;-59
2022/12/02 00:16:25;;;;;;;55.33;27.73;;;4.30;99.90;;;;;;5027591;28;20147;-60
2022/12/02 00:18:53;;;;;;;56.30;27.65;;;4.20;99.90;;;;;;5029536;28;20125;-59
2022/12/02 00:21:19;;;;;;;59.33;27.05;;;4.20;99.90;;;;;;5046012;28;20603;-59
2022/12/02 00:23:45;;;;;;;51.92;26.55;;;4.10;99.90;;;;;;5028515;28;20033;-59
2022/12/02 00:26:11;;;;;;;53.67;27.30;;;4.10;99.90;;;;;;5031329;28;20418;-59
2022/12/02 00:28:37;;;;;;;57.40;27.13;;;4.10;99.90;;;;;;5040083;28;20048;-59
2022/12/02 00:31:03;;;;;;;50.53;26.05;;;4.10;99.90;;;;;;5059031;28;20119;-59
2022/12/02 00:33:29;;;;;;;52.30;26.85;;;4.10;99.90;;;;;;5033013;28;21539;-58
2022/12/02 00:35:55;;;;;;;53.28;26.77;;;4.10;99.90;;;;;;5047668;28;20036;-59
2022/12/02 00:38:20;;;;;;;52.42;26.85;;;4.10;99.90;;;;;;5032098;28;20075;-58
2022/12/02 00:40:46;;;;;;;52.47;26.73;;;4.00;99.90;;;;;;5024371;28;20417;-58
2022/12/02 00:48:40;;;;;;;;;;;4.00;99.90;;;;;;5031469;28;20051;-60
2022/12/02 00:51:06;;;;;;;54.38;26.30;;;3.90;99.90;;;;;;5047656;28;20382;-59
2022/12/02 00:53:32;;;;;;;53.58;27.42;;;3.90;99.90;;;;;;5044779;28;20044;-58
2022/12/02 00:55:58;;;;;;;51.03;25.90;;;3.90;99.90;;;;;;5046333;28;20033;-59
2022/12/02 00:58:23;;;;;;;54.22;27.13;;;3.90;99.90;;;;;;4998691;28;20389;-57
2022/12/02 01:00:49;;;;;;;52.42;26.98;;;3.90;99.90;;;;;;5027037;28;20045;-58
2022/12/02 01:03:15;;;;;;;54.20;26.77;;;3.90;99.90;;;;;;5016403;28;20479;-59
2022/12/02 01:05:40;;;;;;;50.80;26.63;;;3.90;99.90;;;;;;5029012;28;20066;-58
2022/12/02 01:08:06;;;;;;;51.08;26.48;;;3.90;99.90;;;;;;5013776;28;20044;-59
2022/12/02 01:10:32;;;;;;;53.55;28.35;;;3.90;99.90;;;;;;5036093;28;20041;-59
2022/12/02 01:12:58;;;;;;;54.58;27.45;;;3.90;99.90;;;;;;5033698;28;20059;-59
2022/12/02 01:15:24;;;;;;;48.10;26.52;;;3.80;99.90;;;;;;5027976;28;20097;-59
2022/12/02 01:17:49;;;;;;;52.25;26.55;;;3.80;99.90;;;;;;5036375;28;20052;-58
2022/12/02 01:20:15;;;;;;;52.47;26.05;;;3.90;99.90;;;;;;5039797;28;20070;-60
2022/12/02 01:22:41;;;;;;;50.78;26.42;;;3.80;99.90;;;;;;5035838;28;20052;-59
2022/12/02 01:25:07;;;;;;;52.85;27.40;;;3.80;99.90;;;;;;5033996;28;20047;-60
2022/12/02 01:27:33;;;;;;;47.70;24.80;;;3.80;99.90;;;;;;5032890;28;20044;-58
2022/12/02 01:29:58;;;;;;;51.08;25.85;;;3.90;99.90;;;;;;5039719;28;20744;-60
2022/12/02 01:32:24;;;;;;;53.65;27.17;;;3.80;99.90;;;;;;5043626;28;20040;-59
2022/12/02 01:34:50;;;;;;;52.40;27.13;;;3.80;99.90;;;;;;5029070;28;20029;-60
2022/12/02 01:37:16;;;;;;;48.00;26.05;;;3.80;99.90;;;;;;5051956;28;20044;-59
2022/12/02 01:39:42;;;;;;;50.92;26.08;;;3.80;99.90;;;;;;5027416;28;20040;-59
2022/12/02 01:42:09;;;;;;;51.65;27.00;;;3.80;99.90;;;;;;5043070;28;20059;-59
2022/12/02 01:44:35;;;;;;;56.70;26.63;;;3.80;99.90;;;;;;5041100;28;20055;-59
2022/12/02 01:47:01;;;;;;;52.85;26.52;;;3.80;99.90;;;;;;5030338;28;21412;-60
2022/12/02 01:49:27;;;;;;;53.13;26.55;;;3.80;99.90;;;;;;5038549;28;20055;-59
2022/12/02 01:51:53;;;;;;;50.08;24.75;;;3.80;99.90;;;;;;5029317;28;22150;-59
2022/12/02 01:54:19;;;;;;;52.47;27.00;;;3.90;99.90;;;;;;5037281;28;20044;-59
2022/12/02 01:56:45;;;;;;;54.40;26.98;;;3.80;99.90;;;;;;5041124;28;20048;-60
2022/12/02 01:59:13;;;;;;;48.33;26.83;;;3.80;99.90;;;;;;5029205;28;20040;-60
2022/12/02 02:01:39;;;;;;;51.38;27.15;;;3.80;99.90;;;;;;5057837;28;20115;-60
2022/12/02 02:04:05;;;;;;;47.65;25.15;;;3.50;99.90;;;;;;5040172;28;20044;-59
2022/12/02 02:06:36;;;;;;;57.38;29.20;;;3.80;99.90;;;;;;5024794;28;20678;-59
2022/12/02 02:09:02;;;;;;;54.08;26.08;;;3.70;99.90;;;;;;5034529;28;20051;-59
2022/12/02 02:11:28;;;;;;;48.72;25.38;;;3.70;99.90;;;;;;5038029;28;20072;-59
2022/12/02 02:13:55;;;;;;;53.17;26.58;;;3.70;99.90;;;;;;5045889;28;20132;-59
2022/12/02 02:16:20;;;;;;;53.35;26.27;;;3.70;99.90;;;;;;5042808;28;20040;-58
2022/12/02 02:18:46;;;;;;;59.90;29.08;;;3.80;99.90;;;;;;5016050;28;20044;-60
2022/12/02 02:21:21;;;;;;;51.67;24.65;;;3.80;99.90;;;;;;5032707;28;20032;-59
2022/12/02 02:23:47;;;;;;;54.15;27.45;;;3.80;99.90;;;;;;5041447;28;20399;-59
2022/12/02 02:26:13;;;;;;;53.35;27.45;;;3.80;99.90;;;;;;5052295;28;20039;-59
2022/12/02 02:28:39;;;;;;;55.75;24.77;;;3.70;99.90;;;;;;5035006;28;20048;-59
2022/12/02 02:31:04;;;;;;;50.38;25.63;;;3.70;99.90;;;;;;5047743;28;20044;-58
2022/12/02 02:33:32;;;;;;;49.33;24.27;;;3.70;99.90;;;;;;5039866;28;20499;-59
2022/12/02 02:35:59;;;;;;;50.92;24.35;;;3.70;99.90;;;;;;5042117;28;20162;-57
2022/12/02 02:38:27;;;;;;;47.47;24.42;;;3.70;99.90;;;;;;5051938;28;20511;-57
2022/12/02 02:40:54;;;;;;;51.33;24.67;;;3.70;99.90;;;;;;5052870;28;20043;-55
2022/12/02 02:43:22;;;;;;;47.42;24.40;;;3.70;99.90;;;;;;5064985;22;20048;-55
2022/12/02 02:45:49;;;;;;;50.28;25.10;;;3.70;99.90;;;;;;5056811;28;20044;-55
2022/12/02 02:48:16;;;;;;;51.72;25.70;;;3.70;99.90;;;;;;5056715;28;20033;-56
2022/12/02 02:50:44;;;;;;;47.88;24.98;;;3.70;99.90;;;;;;5074191;28;20123;-56
2022/12/02 02:53:12;;;;;;;50.00;25.63;;;3.70;99.90;;;;;;5061446;28;20041;-56
2022/12/02 02:55:38;;;;;;;48.75;25.00;;;3.70;99.90;;;;;;5050468;28;20070;-54
2022/12/02 02:58:32;;;;;;;44.17;23.30;;;3.70;99.90;;;;;;5061344;28;20049;-56
2022/12/02 03:01:18;;;;;;;44.33;21.92;;;3.70;99.90;;;;;;5053546;28;20146;-57
2022/12/02 03:03:48;;;;;;;49.88;23.50;;;3.70;99.90;;;;;;5058385;28;20036;-54
2022/12/02 03:06:14;;;;;;;44.72;22.73;;;3.70;99.90;;;;;;5061729;28;20048;-56
2022/12/02 03:08:44;;;;;;;45.25;23.10;;;3.60;99.90;;;;;;5057295;28;20047;-56
2022/12/02 03:11:10;;;;;;;48.13;23.63;;;3.70;99.90;;;;;;5051236;28;20160;-56
2022/12/02 03:13:39;;;;;;;44.78;22.15;;;3.60;99.90;;;;;;5055654;28;20078;-56
2022/12/02 03:16:08;;;;;;;48.60;22.85;;;3.60;99.90;;;;;;5057548;28;20438;-55
2022/12/02 03:18:34;;;;;;;49.30;24.70;;;3.60;99.90;;;;;;5055345;28;20072;-56
2022/12/02 03:21:01;;;;;;;50.90;23.85;;;3.60;99.90;;;;;;5054439;28;20491;-56
2022/12/02 03:23:29;;;;;;;47.83;24.15;;;3.60;99.90;;;;;;5067702;28;20083;-59
2022/12/02 03:25:55;;;;;;;47.17;23.23;;;3.60;99.90;;;;;;5050655;28;20120;-55
2022/12/02 03:28:21;;;;;;;48.67;24.13;;;3.60;99.90;;;;;;5054236;28;20051;-57
2022/12/02 03:30:47;;;;;;;49.42;23.27;;;3.60;99.90;;;;;;5054592;28;20052;-57
2022/12/02 03:33:13;;;;;;;55.45;24.50;;;3.60;99.90;;;;;;5054753;28;20043;-58
2022/12/02 03:35:39;;;;;;;53.72;25.20;;;3.60;99.90;;;;;;5056754;28;20025;-58
2022/12/02 03:38:05;;;;;;;50.05;24.08;;;3.60;99.90;;;;;;5049194;28;20047;-57
2022/12/02 03:40:31;;;;;;;50.70;24.67;;;3.60;99.90;;;;;;5054371;28;20256;-57
2022/12/02 03:42:58;;;;;;;53.40;25.00;;;3.70;99.90;;;;;;5061710;28;20457;-57
2022/12/02 03:45:24;;;;;;;46.70;22.08;;;3.70;99.90;;;;;;5039325;28;20033;-55
2022/12/02 03:47:50;;;;;;;52.92;25.38;;;3.70;99.90;;;;;;5050481;28;20054;-57
2022/12/02 03:50:16;;;;;;;52.53;25.75;;;3.70;99.90;;;;;;5057161;28;20040;-57
2022/12/02 03:52:42;;;;;;;54.50;24.98;;;3.70;99.90;;;;;;5052253;28;20075;-58
2022/12/02 03:55:09;;;;;;;54.30;24.33;;;3.70;99.90;;;;;;5050200;28;20409;-58
2022/12/02 03:57:35;;;;;;;57.33;26.60;;;3.70;99.90;;;;;;5056252;28;20496;-57
2022/12/02 04:00:01;;;;;;;58.92;25.80;;;3.60;99.90;;;;;;5053947;28;20045;-58
2022/12/02 04:02:27;;;;;;;51.58;25.63;;;3.60;99.90;;;;;;5060771;28;20032;-58
2022/12/02 04:04:53;;;;;;;54.35;25.23;;;3.60;99.90;;;;;;5056100;28;20044;-59
2022/12/02 04:07:18;;;;;;;55.67;27.13;;;3.60;99.90;;;;;;5051674;28;20079;-57
2022/12/02 04:09:44;;;;;;;52.58;25.08;;;3.60;99.90;;;;;;5034519;28;20138;-55
2022/12/02 04:12:10;;;;;;;53.63;23.90;;;3.60;99.90;;;;;;5048164;28;20049;-57
2022/12/02 04:14:35;;;;;;;58.42;25.42;;;3.60;99.90;;;;;;5060506;28;20032;-57
2022/12/02 04:17:01;;;;;;;54.38;25.20;;;3.60;99.90;;;;;;5060570;28;20039;-58
2022/12/02 04:19:27;;;;;;;62.58;26.13;;;3.60;99.90;;;;;;5053780;28;20297;-58
2022/12/02 04:21:52;;;;;;;53.80;25.15;;;3.60;99.90;;;;;;5056740;28;20040;-58
2022/12/02 04:24:18;;;;;;;62.55;26.27;;;3.50;99.90;;;;;;5048798;28;20048;-58
2022/12/02 04:26:44;;;;;;;55.80;26.55;;;3.50;99.90;;;;;;5047915;28;20461;-59
2022/12/02 04:29:09;;;;;;;60.05;25.80;;;3.50;99.90;;;;;;5057893;28;20029;-57
2022/12/02 04:31:35;;;;;;;54.55;25.15;;;3.60;99.90;;;;;;5051987;28;20068;-59
2022/12/02 04:34:01;;;;;;;58.45;26.98;;;3.60;99.90;;;;;;5052784;28;20042;-56
2022/12/02 04:36:26;;;;;;;53.22;25.73;;;3.60;99.90;;;;;;5053877;28;20387;-58
2022/12/02 04:38:52;;;;;;;52.58;24.77;;;3.60;99.90;;;;;;5059601;28;20040;-60
2022/12/02 04:41:18;;;;;;;53.85;25.42;;;3.60;99.90;;;;;;5057390;28;20750;-59
2022/12/02 04:43:43;;;;;;;55.83;24.85;;;3.60;99.90;;;;;;5054999;28;20039;-58
2022/12/02 04:46:09;;;;;;;52.20;23.63;;;3.60;99.90;;;;;;5059628;28;20036;-58
2022/12/02 04:48:35;;;;;;;56.55;26.45;;;3.60;99.90;;;;;;5054915;28;20063;-59
2022/12/02 04:51:00;;;;;;;54.40;24.58;;;3.60;99.90;;;;;;5051524;28;20028;-56
2022/12/02 04:53:26;;;;;;;48.13;24.17;;;3.60;99.90;;;;;;5032434;28;20110;-58
2022/12/02 04:55:52;;;;;;;49.50;24.00;;;3.60;99.90;;;;;;5057898;28;20512;-58
2022/12/02 04:58:17;;;;;;;51.55;25.33;;;3.60;99.90;;;;;;5054391;28;20076;-57
2022/12/02 05:00:43;;;;;;;49.35;24.67;;;3.60;99.90;;;;;;5055016;28;20537;-58
2022/12/02 05:03:09;;;;;;;49.00;23.27;;;3.50;99.90;;;;;;5073835;28;20050;-58
2022/12/02 05:05:34;;;;;;;48.63;22.35;;;3.60;99.90;;;;;;5053474;28;20066;-57
2022/12/02 05:08:00;;;;;;;46.55;23.73;;;3.50;99.90;;;;;;5056597;28;20044;-58
2022/12/02 05:10:26;;;;;;;50.10;24.42;;;3.50;99.90;;;;;;5056991;28;20065;-54
2022/12/02 05:12:52;;;;;;;52.22;25.05;;;3.50;99.90;;;;;;5057225;28;20036;-57
2022/12/02 05:15:19;;;;;;;51.78;24.33;;;3.50;99.90;;;;;;5038845;28;20507;-58
2022/12/02 05:17:44;;;;;;;50.53;24.45;;;3.50;99.90;;;;;;5053597;28;20210;-58
2022/12/02 05:20:11;;;;;;;56.45;27.10;;;3.50;99.90;;;;;;5037485;28;20127;-58
2022/12/02 05:22:37;;;;;;;50.53;24.40;;;3.50;99.90;;;;;;5054094;28;20032;-57
2022/12/02 05:25:03;;;;;;;52.80;24.42;;;3.50;99.90;;;;;;5054982;28;20048;-58
2022/12/02 05:27:28;;;;;;;54.38;24.67;;;3.50;99.90;;;;;;5056129;28;20029;-57
2022/12/02 05:29:54;;;;;;;49.95;24.15;;;3.50;99.90;;;;;;5057469;28;20090;-57
2022/12/02 05:32:20;;;;;;;50.50;23.30;;;3.50;99.90;;;;;;5056853;28;20036;-55
2022/12/02 05:34:46;;;;;;;50.63;24.63;;;3.40;99.90;;;;;;5056547;28;20047;-58
2022/12/02 05:37:11;;;;;;;55.00;25.23;;;3.40;99.90;;;;;;5060420;28;20153;-59
2022/12/02 05:39:37;;;;;;;53.53;24.45;;;3.50;99.90;;;;;;5051619;28;20502;-57
2022/12/02 05:42:07;;;;;;;60.45;27.38;;;3.50;99.90;;;;;;5053285;28;20044;-56
2022/12/02 05:44:33;;;;;;;50.13;25.13;;;3.50;99.90;;;;;;5039121;28;20103;-57
2022/12/02 05:47:04;;;;;;;52.88;24.13;;;3.50;99.90;;;;;;5053960;28;20132;-58
2022/12/02 05:49:32;;;;;;;46.20;24.23;;;3.50;99.90;;;;;;5058660;28;20040;-56
2022/12/02 05:51:59;;;;;;;55.78;26.33;;;3.50;99.90;;;;;;5057628;28;20044;-59
2022/12/02 05:54:26;;;;;;;53.88;24.85;;;3.50;99.90;;;;;;5055553;28;20059;-56
2022/12/02 05:56:52;;;;;;;60.60;26.52;;;3.50;99.90;;;;;;5057267;28;20334;-57
2022/12/02 05:59:20;;;;;;;59.88;26.10;;;3.50;99.90;;;;;;5058877;28;20043;-55
2022/12/02 06:02:38;;;;;;;65.93;29.77;;;3.50;99.90;;;;;;5051606;28;20543;-60
2022/12/02 06:05:16;;;;;;;72.07;28.67;;;3.50;99.90;;;;;;5040973;28;20143;-57
2022/12/02 06:07:42;;;;;;;70.50;28.73;;;3.60;99.90;;;;;;5056339;28;20078;-57
2022/12/02 06:10:26;;;;;;;71.15;28.10;;;3.60;99.90;;;;;;5057170;28;20478;-56
2022/12/02 06:12:56;;;;;;;73.22;29.30;;;3.60;99.90;;;;;;5055334;28;20063;-58
2022/12/02 06:15:22;;;;;;;69.25;28.00;;;3.60;99.90;;;;;;5053017;28;20142;-58
2022/12/02 06:17:47;;;;;;;67.82;27.25;;;3.60;99.90;;;;;;5054488;28;20183;-59
2022/12/02 06:20:34;;;;;;;66.55;27.42;;;3.60;99.90;;;;;;5053960;28;20507;-57
2022/12/02 06:23:01;;;;;;;65.13;28.02;;;3.50;99.90;;;;;;5049916;28;20577;-60
2022/12/02 06:25:29;;;;;;;71.00;28.83;;;3.50;99.90;;;;;;5046493;28;20095;-59
2022/12/02 06:28:00;;;;;;;80.93;28.25;;;3.50;99.90;;;;;;5047173;28;20444;-59
2022/12/02 06:30:26;;;;;;;77.30;29.88;;;3.50;99.90;;;;;;5042048;28;20083;-58
2022/12/02 06:32:57;;;;;;;76.85;29.17;;;3.40;99.90;;;;;;5053301;28;20041;-58
2022/12/02 06:35:30;;;;;;;65.57;25.20;;;3.40;99.90;;;;;;5054920;28;20445;-59
2022/12/02 06:37:58;;;;;;;75.82;29.77;;;3.40;99.90;;;;;;5057375;28;20479;-58
2022/12/02 06:40:30;;;;;;;76.78;29.75;;;3.40;99.90;;;;;;5041039;28;20462;-56
2022/12/02 06:43:13;;;;;;;73.07;28.70;;;3.40;99.90;;;;;;5053428;28;20051;-58
2022/12/02 06:45:39;;;;;;;61.72;27.35;;;3.40;99.90;;;;;;5051259;28;21944;-59
2022/12/02 06:48:35;;;;;;;71.43;28.50;;;3.40;99.90;;;;;;5046665;28;20042;-60
2022/12/02 06:51:19;;;;;;;74.82;28.60;;;3.40;99.90;;;;;;5047185;28;20079;-59
2022/12/02 06:53:46;;;;;;;57.42;25.20;;;3.40;99.90;;;;;;5050393;28;20039;-57
2022/12/02 06:56:29;;;;;;;60.88;27.33;;;3.40;99.90;;;;;;5048531;28;20431;-59
2022/12/02 06:59:00;;;;;;;77.85;30.08;;;3.40;99.90;;;;;;5046383;28;20048;-59
2022/12/02 07:01:32;;;;;;;72.47;28.02;;;3.40;99.90;;;;;;5057858;28;20102;-59
2022/12/02 07:04:07;;;;;;;67.95;27.70;;;3.40;99.90;;;;;;5050873;28;20039;-58
2022/12/02 07:06:39;;;;;;;66.20;26.63;;;3.40;99.90;;;;;;5046443;28;20086;-58
2022/12/02 07:09:26;;;;;;;84.30;32.17;;;3.40;99.90;;;;;;5055194;28;20052;-56
2022/12/02 07:11:53;;;;;;;71.20;28.23;;;3.40;99.90;;;;;;5053300;28;20420;-59
2022/12/02 07:14:39;;;;;;;76.63;28.95;;;3.40;99.90;;;;;;5061753;28;20094;-59
2022/12/02 07:17:30;;;;;;;74.93;29.77;;;3.40;99.90;;;;;;5053338;28;20041;-58
2022/12/02 07:20:05;;;;;;;62.85;25.70;;;3.40;99.90;;;;;;5053409;28;20119;-60
2022/12/02 07:22:32;;;;;;;69.20;27.98;;;3.40;99.90;;;;;;5047778;28;20029;-58
2022/12/02 07:25:04;;;;;;;69.63;27.33;;;3.40;99.90;;;;;;5055295;28;20048;-59
2022/12/02 07:27:32;;;;;;;65.72;26.90;;;3.40;99.90;;;;;;5055910;28;20036;-58
2022/12/02 07:30:00;;;;;;;74.60;28.15;;;3.40;99.90;;;;;;5055207;28;20399;-59
2022/12/02 07:32:26;;;;;;;76.72;28.40;;;3.40;99.90;;;;;;5056888;28;20498;-57
2022/12/02 07:34:52;;;;;;;76.60;29.25;;;3.40;99.90;;;;;;5057977;28;20522;-59
2022/12/02 07:37:18;;;;;;;68.32;27.42;;;3.40;99.90;;;;;;5049233;28;20596;-57
2022/12/02 07:39:44;;;;;;;74.93;31.58;;;3.40;99.90;;;;;;5054208;28;20036;-57
2022/12/02 07:42:09;;;;;;;75.25;28.60;;;3.40;99.90;;;;;;5052165;28;20118;-58
2022/12/02 07:44:39;;;;;;;77.28;30.33;;;3.40;99.90;;;;;;5059284;28;20043;-57
2022/12/02 07:47:05;;;;;;;78.47;30.40;;;3.40;99.90;;;;;;5054184;28;20142;-58
2022/12/02 07:49:31;;;;;;;73.20;30.83;;;3.40;99.90;;;;;;5050411;28;20044;-60
2022/12/02 07:51:57;;;;;;;69.78;31.90;;;3.40;99.90;;;;;;5042958;28;20303;-57
2022/12/02 07:54:23;;;;;;;78.38;34.72;;;3.40;99.90;;;;;;5042505;28;20483;-58
2022/12/02 07:56:48;;;;;;;75.63;33.72;;;3.40;99.90;;;;;;5048108;28;20502;-59
2022/12/02 07:59:14;;;;;;;76.38;35.67;;;3.40;99.90;;;;;;5044188;28;20048;-57
2022/12/02 08:01:40;;;;;;;75.38;34.25;;;3.40;99.90;;;;;;5054191;28;20033;-57
2022/12/02 08:04:06;;;;;;;71.15;31.20;;;3.40;99.90;;;;;;5059729;28;20043;-60
2022/12/02 08:06:31;;;;;;;70.43;29.90;;;3.40;99.90;;;;;;5052376;28;20153;-55
2022/12/02 08:08:57;;;;;;;70.57;28.40;;;3.50;99.90;;;;;;5053743;28;20423;-54
2022/12/02 08:11:23;;;;;;;63.50;26.92;;;3.50;99.90;;;;;;5060914;28;20064;-57
2022/12/02 08:13:48;;;;;;;64.57;25.95;;;3.40;99.90;;;;;;5054437;28;20483;-57
2022/12/02 08:16:14;;;;;;;64.47;26.90;;;3.50;99.90;;;;;;5058908;28;20516;-56
2022/12/02 08:18:40;;;;;;;61.33;27.08;;;3.40;99.90;;;;;;5043760;28;20048;-54
2022/12/02 08:21:05;;;;;;;47.90;22.70;;;3.50;99.90;;;;;;5050410;28;20041;-60
2022/12/02 08:23:31;;;;;;;69.40;27.00;;;3.50;99.90;;;;;;5049894;28;20091;-58
2022/12/02 08:25:57;;;;;;;66.20;27.20;;;3.50;99.90;;;;;;5049502;28;20044;-57
2022/12/02 08:28:25;;;;;;;53.15;23.05;;;3.50;99.90;;;;;;5039737;28;20049;-59
2022/12/02 08:30:50;;;;;;;63.30;25.63;;;3.40;99.90;;;;;;5057178;28;20071;-57
2022/12/02 08:33:16;;;;;;;63.63;26.08;;;3.40;99.90;;;;;;5055362;28;20036;-58
2022/12/02 08:35:42;;;;;;;56.67;25.17;;;3.50;99.90;;;;;;5058203;28;21116;-59
2022/12/02 08:38:07;;;;;;;62.70;26.05;;;3.50;99.90;;;;;;5053726;28;20071;-60
2022/12/02 08:40:33;;;;;;;59.08;24.52;;;3.50;99.90;;;;;;5063025;28;20039;-53
2022/12/02 08:43:01;;;;;;;56.33;25.13;;;3.60;99.90;;;;;;5086731;22;20510;-59
2022/12/02 08:45:27;;;;;;;56.60;24.85;;;3.60;99.90;;;;;;5079451;28;20173;-59
2022/12/02 08:47:53;;;;;;;61.15;26.15;;;3.70;99.90;;;;;;5085548;28;20055;-60
2022/12/02 08:50:19;;;;;;;55.42;24.85;;;3.70;99.90;;;;;;5066674;28;20066;-59
2022/12/02 08:52:45;;;;;;;62.67;27.25;;;3.70;99.90;;;;;;5099517;28;20040;-59
2022/12/02 08:55:11;;;;;;;68.18;28.27;;;3.60;99.90;;;;;;5094855;28;20040;-59
2022/12/02 08:57:38;;;;;;;61.50;27.75;;;3.70;99.90;;;;;;5100668;28;20049;-59
2022/12/02 09:00:06;;;;;;;62.33;27.13;;;3.60;99.90;;;;;;5098565;28;20133;-58
2022/12/02 09:02:32;;;;;;;59.22;27.02;;;3.60;99.90;;;;;;5088569;28;20470;-58
2022/12/02 09:04:57;;;;;;;56.25;26.38;;;3.60;99.90;;;;;;5094582;28;20047;-60
2022/12/02 09:07:23;;;;;;;53.42;24.60;;;3.70;99.90;;;;;;5097438;28;20047;-58
2022/12/02 09:09:49;;;;;;;48.05;24.15;;;3.60;99.90;;;;;;5107839;28;20325;-58
2022/12/02 09:12:17;;;;;;;46.13;24.10;;;3.70;99.90;;;;;;5092350;28;20035;-59
2022/12/02 09:14:43;;;;;;;48.85;24.73;;;3.60;99.90;;;;;;5092770;28;20039;-58
2022/12/02 09:17:09;;;;;;;56.65;25.98;;;3.60;99.90;;;;;;5096520;28;20407;-58
2022/12/02 09:19:34;;;;;;;50.40;24.50;;;3.60;99.90;;;;;;5103910;28;20031;-59
2022/12/02 09:22:00;;;;;;;46.10;23.85;;;3.50;99.90;;;;;;5102516;28;20470;-59
2022/12/02 09:24:26;;;;;;;44.72;22.83;;;3.50;99.90;;;;;;5102076;28;20355;-58
2022/12/02 09:26:52;;;;;;;51.50;24.60;;;3.50;99.90;;;;;;5100409;28;20032;-59
2022/12/02 09:29:17;;;;;;;45.95;23.45;;;3.50;99.90;;;;;;5100425;28;20076;-58
2022/12/02 09:31:43;;;;;;;52.45;25.20;;;3.50;99.90;;;;;;5079258;28;20122;-60
2022/12/02 09:34:09;;;;;;;50.38;23.50;;;3.50;99.90;;;;;;5108857;28;20066;-59
2022/12/02 09:36:35;;;;;;;49.53;21.80;;;3.50;99.90;;;;;;5102205;28;20042;-59
2022/12/02 09:39:00;;;;;;;49.10;24.05;;;3.50;99.90;;;;;;5104725;28;20062;-59
2022/12/02 09:41:26;;;;;;;42.38;21.10;;;3.50;99.90;;;;;;5098818;28;20039;-56
2022/12/02 09:43:53;;;;;;;45.80;21.60;;;3.50;99.90;;;;;;5099688;28;20189;-58
2022/12/02 09:46:19;;;;;;;44.95;21.33;;;3.40;99.90;;;;;;5099077;28;20456;-59
2022/12/02 09:48:45;;;;;;;48.85;22.70;;;3.40;99.90;;;;;;5098653;28;20044;-59
2022/12/02 09:51:11;;;;;;;47.63;22.48;;;3.40;99.90;;;;;;5070373;28;20043;-58
2022/12/02 09:53:39;;;;;;;44.85;20.95;;;3.50;99.90;;;;;;5094347;28;20047;-59
2022/12/02 09:56:12;;;;;;;45.22;21.55;;;3.40;99.90;;;;;;5093854;28;20466;-59
2022/12/02 09:58:38;;;;;;;41.30;20.58;;;3.50;99.90;;;;;;5099953;28;20122;-58
2022/12/02 10:01:09;;;;;;;43.33;21.15;;;3.40;99.90;;;;;;5103269;28;20123;-59
2022/12/02 10:03:35;;;;;;;41.33;19.88;;;3.50;99.90;;;;;;5096055;28;20110;-59
2022/12/02 10:06:06;;;;;;;43.25;21.05;;;3.40;99.90;;;;;;5109859;27;20439;-59
2022/12/02 10:08:32;;;;;;;45.13;20.00;;;3.30;99.90;;;;;;5083294;28;20129;-60
2022/12/02 10:10:58;;;;;;;42.65;19.65;;;3.30;99.90;;;;;;5095978;28;20065;-58
2022/12/02 10:13:25;;;;;;;41.30;19.15;;;3.20;99.90;;;;;;5093640;28;20044;-59
2022/12/02 10:15:52;;;;;;;44.75;21.17;;;3.30;99.90;;;;;;5101221;28;20145;-59
2022/12/02 10:18:25;;;;;;;40.60;19.92;;;3.30;99.90;;;;;;5113292;27;20055;-59
2022/12/02 10:20:52;;;;;;;41.88;18.58;;;3.30;99.90;;;;;;5102268;28;20391;-59
2022/12/02 10:23:25;;;;;;;40.25;20.10;;;3.30;99.90;;;;;;5102282;28;20104;-59
2022/12/02 10:26:06;;;;;;;37.53;18.30;;;3.30;99.90;;;;;;5084778;28;20151;-59
2022/12/02 10:28:35;;;;;;;39.17;17.40;;;3.20;99.90;;;;;;5102363;28;20394;-59
2022/12/02 10:31:07;;;;;;;39.40;18.60;;;3.30;99.90;;;;;;5096338;28;20110;-60
2022/12/02 10:33:36;;;;;;;38.08;18.45;;;3.40;99.90;;;;;;5093615;28;20043;-60
2022/12/02 10:36:02;;;;;;;37.35;19.13;;;3.40;99.90;;;;;;5089334;28;20048;-59
2022/12/02 10:38:33;;;;;;;42.83;19.60;;;3.40;99.90;;;;;;5099416;28;20051;-59
2022/12/02 10:41:14;;;;;;;43.67;21.40;;;3.50;99.90;;;;;;5099690;28;20096;-59
2022/12/02 10:43:59;;;;;;;45.45;21.05;;;3.50;99.90;;;;;;5115838;27;20047;-60
2022/12/02 10:46:25;;;;;;;46.50;21.63;;;3.60;99.90;;;;;;5097913;27;20039;-60
2022/12/02 10:48:50;;;;;;;44.10;21.60;;;3.60;99.90;;;;;;5097194;28;20046;-59
2022/12/02 10:51:19;;;;;;;44.90;20.92;;;3.60;99.90;;;;;;5086189;28;20046;-59
2022/12/02 10:53:51;;;;;;;46.22;21.13;;;3.60;99.90;;;;;;5092569;28;20645;-60
2022/12/02 10:56:22;;;;;;;43.80;21.40;;;3.50;99.90;;;;;;5096660;28;20043;-59
2022/12/02 10:58:50;;;;;;;41.60;19.65;;;3.40;99.90;;;;;;5092789;28;20040;-59
2022/12/02 11:01:19;;;;;;;49.33;22.33;;;3.30;99.90;;;;;;5089569;28;20036;-59
2022/12/02 11:03:45;;;;;;;45.30;21.10;;;3.30;99.90;;;;;;5093400;28;20047;-58
2022/12/02 11:06:18;;;;;;;44.88;20.70;;;3.40;99.90;;;;;;5111328;27;20510;-59
2022/12/02 11:08:46;;;;;;;45.97;20.63;;;3.30;99.90;;;;;;5097580;28;20575;-60
2022/12/02 11:11:14;;;;;;;40.30;19.95;;;3.10;99.90;;;;;;5094036;28;20046;-59
2022/12/02 11:14:01;;;;;;;39.55;19.02;;;3.10;99.90;;;;;;5097024;28;20048;-59
2022/12/02 11:16:26;;;;;;;40.45;19.58;;;3.10;99.90;;;;;;5098522;28;20035;-58
2022/12/02 11:19:07;;;;;;;46.55;21.85;;;3.10;99.90;;;;;;5094404;28;20104;-59
2022/12/02 11:21:37;;;;;;;46.00;21.48;;;3.20;99.90;;;;;;5076628;28;20303;-59
2022/12/02 11:24:21;;;;;;;39.72;20.02;;;3.30;99.90;;;;;;5102833;28;20518;-58
2022/12/02 11:27:00;;;;;;;40.10;20.88;;;3.30;99.90;;;;;;5093392;28;20135;-59
2022/12/02 11:29:25;;;;;;;43.97;20.60;;;3.20;99.90;;;;;;5091669;28;20051;-59
2022/12/02 11:32:37;;;;;;;42.08;21.35;;;3.30;99.90;;;;;;5088881;28;20039;-59
2022/12/02 11:35:12;;;;;;;46.22;22.83;;;3.30;99.90;;;;;;5089694;28;20040;-60
2022/12/02 11:37:40;;;;;;;40.03;20.33;;;3.40;99.90;;;;;;5094865;28;20123;-59
2022/12/02 11:40:15;;;;;;;44.38;20.95;;;3.30;99.90;;;;;;5088039;28;20047;-59
2022/12/02 11:42:42;;;;;;;40.05;20.80;;;3.40;99.90;;;;;;5100534;28;20067;-59
2022/12/02 11:45:11;;;;;;;42.65;22.65;;;3.40;99.90;;;;;;5101296;28;20086;-59
2022/12/02 11:47:37;;;;;;;49.15;24.10;;;3.50;99.90;;;;;;5093867;28;20143;-59
2022/12/02 11:50:15;;;;;;;41.80;21.75;;;3.50;99.90;;;;;;5094764;28;20043;-59
2022/12/02 11:52:43;;;;;;;46.60;24.58;;;3.50;99.90;;;;;;5088171;28;20498;-60
2022/12/02 11:55:19;;;;;;;45.30;23.20;;;3.50;99.90;;;;;;5092917;28;20036;-58
2022/12/02 11:57:47;;;;;;;45.15;23.42;;;3.60;99.90;;;;;;5091909;28;20040;-59
2022/12/02 12:00:27;;;;;;;48.90;26.52;;;3.60;99.90;;;;;;5094827;28;20051;-60
2022/12/02 12:03:08;;;;;;;47.10;25.33;;;3.70;99.90;;;;;;5092659;28;20417;-60
2022/12/02 12:05:34;;;;;;;48.20;24.52;;;3.60;99.90;;;;;;5112537;27;20105;-59
2022/12/02 12:08:00;;;;;;;48.63;25.58;;;3.50;99.90;;;;;;5099677;28;20085;-60
2022/12/02 12:10:30;;;;;;;50.25;25.73;;;3.50;99.90;;;;;;5101351;28;20040;-59
2022/12/02 12:13:16;;;;;;;51.80;26.75;;;3.40;99.90;;;;;;5094256;28;20132;-59
2022/12/02 12:15:55;;;;;;;45.50;24.80;;;3.40;99.90;;;;;;5090612;28;20123;-59
2022/12/02 12:18:46;;;;;;;48.05;25.02;;;3.40;99.90;;;;;;5092978;28;20520;-60
2022/12/02 12:21:14;;;;;;;53.28;28.73;;;3.30;99.90;;;;;;5093485;28;20263;-59
2022/12/02 12:23:44;;;;;;;52.20;27.83;;;3.30;99.90;;;;;;5105151;27;20303;-60
2022/12/02 12:26:31;;;;;;;54.58;29.75;;;3.20;99.90;;;;;;5107148;27;20046;-60
2022/12/02 12:29:04;;;;;;;51.63;27.60;;;3.30;99.90;;;;;;5098182;28;20161;-60
2022/12/02 12:31:29;;;;;;;51.10;27.50;;;3.30;99.90;;;;;;5072953;28;20117;-60
2022/12/02 12:33:55;;;;;;;53.92;28.52;;;3.20;99.90;;;;;;5097245;28;20474;-60
2022/12/02 12:36:21;;;;;;;54.80;28.80;;;3.30;99.90;;;;;;5096945;28;20108;-60
2022/12/02 12:38:46;;;;;;;48.53;27.00;;;3.20;99.90;;;;;;5091379;28;20167;-60
2022/12/02 12:41:12;;;;;;;48.80;26.55;;;3.20;99.90;;;;;;5093797;28;20430;-59
2022/12/02 12:43:38;;;;;;;49.08;26.60;;;3.30;99.90;;;;;;5089763;28;20036;-60
2022/12/02 12:46:04;;;;;;;53.38;29.15;;;3.20;99.90;;;;;;5095434;28;20049;-60
2022/12/02 12:48:29;;;;;;;50.65;26.17;;;3.20;99.90;;;;;;5115094;28;20067;-60
2022/12/02 12:50:55;;;;;;;48.50;25.83;;;3.30;99.90;;;;;;5094897;28;20074;-58